createdAt,value
2022-09-24T00:09:29.461Z,12.02
2022-09-24T00:39:33.455Z,11.77
2022-09-24T01:09:37.530Z,11.43
2022-09-24T01:39:43.229Z,11.25
2022-09-24T02:09:47.351Z,11.03
2022-09-24T02:39:51.713Z,10.78
2022-09-24T03:09:56.214Z,10.49
2022-09-24T03:40:01.056Z,10.31
2022-09-24T04:10:05.486Z,10.29
2022-09-24T04:40:12.486Z,10.31
2022-09-24T05:10:16.749Z,10.33
2022-09-24T05:40:39.565Z,10.49
2022-09-24T06:10:45.434Z,11.04
2022-09-24T06:40:49.500Z,11.83
2022-09-24T07:10:53.849Z,12.37
2022-09-24T07:40:59.936Z,13.05
2022-09-24T08:11:05.950Z,14.65
2022-09-24T08:41:27.045Z,15.98
2022-09-24T09:11:33.135Z,20.63
2022-09-24T09:41:42.767Z,22.79
2022-09-24T10:11:47.272Z,23.25
2022-09-24T10:41:52.747Z,29.53
2022-09-24T11:12:05.522Z,28.23
2022-09-24T11:42:20.506Z,25.90
2022-09-24T12:12:28.211Z,21.15
2022-09-24T12:42:37.025Z,20.78
2022-09-24T13:12:41.178Z,20.22
2022-09-24T13:42:48.944Z,19.52
2022-09-24T14:13:02.282Z,19.54
2022-09-24T14:43:06.460Z,19.31
2022-09-24T15:13:17.014Z,18.34
2022-09-24T15:43:24.094Z,16.74
2022-09-24T16:13:28.113Z,15.85
2022-09-24T16:43:32.238Z,14.76
2022-09-24T17:13:36.273Z,14.66
2022-09-24T17:43:41.077Z,14.58
2022-09-24T18:13:45.417Z,14.45
2022-09-24T18:43:49.825Z,14.26
2022-09-24T19:13:54.911Z,14.06
2022-09-24T19:44:04.526Z,13.99
2022-09-24T20:14:13.232Z,13.79
2022-09-24T20:44:17.558Z,13.73
2022-09-24T21:14:22.302Z,13.59
2022-09-24T21:44:30.305Z,13.37
2022-09-24T22:14:35.054Z,13.27
2022-09-24T22:44:39.104Z,13.19
2022-09-24T23:14:43.166Z,13.26
2022-09-24T23:44:48.481Z,13.12
